KCBE/CBE METAR and TAF weather

Enter ICAO airport designator
Station Type Date Time Source
KCBE METAR 2020/11/27 14:15 UTC NOAA

KCBE 271415Z AUTO 00000KT 10SM OVC048 08/07 A3016 RMK AO2 T00790066


Station Type Date Time Source
KCBE Decoded METAR 2020/11/27 14:15 UTC NOAA

Cumberland, Greater Cumberland Regional Airport, MD, United States (KCBE) 39-36-55N 078-45-39W
Nov 27, 2020 - 09:15 AM EST / 2020.11.27 1415 UTC
Wind: Calm:0
Visibility: 10 mile(s):0
Sky conditions: overcast
Temperature: 46.2 F (7.9 C)
Dew Point: 43.9 F (6.6 C)
Relative Humidity: 91%
Pressure (altimeter): 30.16 in. Hg (1021 hPa)
ob: KCBE 271415Z AUTO 00000KT 10SM OVC048 08/07 A3016 RMK AO2 T00790066
cycle: 14

Station Type Date Time Source
KCBE TAF UTC NOAA

Error!

Example: see airport list